KSMO/SMO METAR and TAF weather

Enter ICAO airport designator
Station Type Date Time Source
KSMO METAR 2020/07/10 23:51 UTC NOAA

KSMO 102351Z AUTO 25008KT 10SM CLR 23/17 A2995 RMK AO2 SLP140 T02280167 10244 20222 58012


Station Type Date Time Source
KSMO Decoded METAR 2020/07/10 23:51 UTC NOAA

SANTA MONICA MUNICIPAL AIRPORT , CA, United States (KSMO) 34-01N 118-27W 57M
Jul 10, 2020 - 07:51 PM EDT / 2020.07.10 2351 UTC
Wind: from the WSW (250 degrees) at 9 MPH (8 KT):0
Visibility: 10 mile(s):0
Sky conditions: clear
Temperature: 73.0 F (22.8 C)
Dew Point: 62.1 F (16.7 C)
Relative Humidity: 68%
Pressure (altimeter): 29.95 in. Hg (1014 hPa)
Pressure tendency: 0.04 inches (1.2 hPa) lower than three hours ago
ob: KSMO 102351Z AUTO 25008KT 10SM CLR 23/17 A2995 RMK AO2 SLP140 T02280167 10244 20222 58012
cycle: 0

Station Type Date Time Source
KSMO TAF 2020/07/10 18:38 UTC NOAA

TAF KSMO 101738Z 1018/1118 VRB05KT P6SM FEW010
FM101900 23008KT P6SM SKC
FM110700 VRB03KT 4SM BR BKN003
FM111500 VRB05KT 5SM BR SCT005

Example: see airport list